createdAt,value
2017-07-02T04:09:48.152Z,5.30
2017-07-02T04:12:16.285Z,9.33
2017-07-02T04:14:44.376Z,6.85
2017-07-02T04:17:12.463Z,6.25
2017-07-02T04:19:40.592Z,7.43
2017-07-02T04:22:08.750Z,6.60
2017-07-02T04:24:36.840Z,7.03
2017-07-02T04:27:04.931Z,8.85
2017-07-02T04:29:33.157Z,8.15
2017-07-02T04:32:01.263Z,8.05
2017-07-02T04:34:29.385Z,9.73
2017-07-02T04:36:57.480Z,10.30
2017-07-02T04:39:25.612Z,9.57
2017-07-02T04:41:53.692Z,10.13
2017-07-02T04:44:21.924Z,10.65
2017-07-02T04:46:50.021Z,10.38
2017-07-02T04:49:18.144Z,15.25
2017-07-02T04:51:46.239Z,12.57
2017-07-02T04:54:14.339Z,12.45
2017-07-02T04:56:42.467Z,14.07
2017-07-02T04:59:10.568Z,12.95
2017-07-02T05:01:38.683Z,13.00
2017-07-02T05:04:06.915Z,12.60
2017-07-02T05:06:35.049Z,13.75
2017-07-02T05:09:03.152Z,15.40
2017-07-02T05:11:31.294Z,13.65
2017-07-02T05:13:59.389Z,13.10
2017-07-02T05:16:27.489Z,14.63
2017-07-02T05:18:55.733Z,15.48
2017-07-02T05:21:23.827Z,14.20
2017-07-02T05:23:51.942Z,13.77
2017-07-02T05:26:20.174Z,15.32
2017-07-02T05:28:48.276Z,14.77
2017-07-02T05:31:16.421Z,17.25
2017-07-02T05:33:44.522Z,15.43
2017-07-02T05:36:12.623Z,19.25
2017-07-02T05:38:40.811Z,16.80
2017-07-02T05:41:08.913Z,18.55
2017-07-02T05:43:37.004Z,20.62
2017-07-02T05:46:05.137Z,17.25
2017-07-02T05:48:33.241Z,18.83
2017-07-02T05:51:01.374Z,17.75
2017-07-02T05:53:29.471Z,22.52
2017-07-02T05:55:57.575Z,18.33
2017-07-02T05:58:25.804Z,18.70
2017-07-02T06:00:53.939Z,22.27
2017-07-02T06:03:22.057Z,20.73
2017-07-02T06:05:50.168Z,21.90
2017-07-02T06:08:18.292Z,17.85
2017-07-02T06:10:46.384Z,18.33
2017-07-02T06:13:14.617Z,17.60
2017-07-02T06:15:42.737Z,19.02
2017-07-02T06:18:10.836Z,21.85
2017-07-02T06:20:38.970Z,20.80
2017-07-02T06:23:07.064Z,21.62
2017-07-02T06:25:35.164Z,20.83
2017-07-02T06:28:03.402Z,23.45
2017-07-02T06:30:31.504Z,21.20
2017-07-02T06:32:59.636Z,22.27
2017-07-02T06:35:27.794Z,22.37
2017-07-02T06:37:55.896Z,22.37
2017-07-02T06:40:24.017Z,23.08
2017-07-02T06:42:52.128Z,22.10
2017-07-02T06:45:20.248Z,23.52
2017-07-02T06:47:48.356Z,22.05
2017-07-02T06:50:16.464Z,22.55
2017-07-02T06:52:44.592Z,20.88
2017-07-02T06:55:12.712Z,19.00
2017-07-02T06:57:40.824Z,22.62
2017-07-02T07:00:09.055Z,19.20
2017-07-02T07:02:37.180Z,19.08
2017-07-02T07:05:05.329Z,19.83
2017-07-02T07:07:33.427Z,17.77
2017-07-02T07:10:01.536Z,23.40
2017-07-02T07:12:29.673Z,16.75
2017-07-02T07:14:57.823Z,17.62
2017-07-02T07:17:25.933Z,18.87
2017-07-02T07:19:54.036Z,17.00
2017-07-02T07:22:23.354Z,16.15
2017-07-02T07:24:51.462Z,17.60
2017-07-02T07:27:19.604Z,16.77
2017-07-02T07:29:47.704Z,19.02
2017-07-02T07:32:15.814Z,17.12
2017-07-02T07:34:43.985Z,17.87
2017-07-02T07:37:12.118Z,16.17
2017-07-02T07:39:40.233Z,16.15
2017-07-02T07:42:08.329Z,16.00
2017-07-02T07:44:36.468Z,18.73
2017-07-02T07:47:04.570Z,16.48
2017-07-02T07:49:32.672Z,17.75
2017-07-02T07:52:00.932Z,21.85
2017-07-02T07:54:29.040Z,17.02
2017-07-02T07:56:57.172Z,19.08
2017-07-02T07:59:25.300Z,17.85
2017-07-02T08:01:53.446Z,20.25
2017-07-02T08:04:21.581Z,19.00
2017-07-02T08:06:49.737Z,18.60
2017-07-02T08:09:17.850Z,19.15
2017-07-02T08:11:45.953Z,18.77
2017-07-02T08:14:14.091Z,15.70
2017-07-02T08:16:42.209Z,17.08
2017-07-02T08:19:10.314Z,17.58
2017-07-02T08:21:38.517Z,15.45
2017-07-02T08:24:06.637Z,14.43
2017-07-02T08:26:34.900Z,16.40
2017-07-02T08:29:03.040Z,15.60
2017-07-02T08:31:31.132Z,20.02
2017-07-02T08:33:59.319Z,17.70
2017-07-02T08:36:27.400Z,17.20
2017-07-02T08:38:55.540Z,16.52
2017-07-02T08:41:23.650Z,15.23
2017-07-02T08:43:51.815Z,16.00
2017-07-02T08:46:19.938Z,18.15
2017-07-02T08:48:48.035Z,17.27
2017-07-02T08:51:16.156Z,16.75
2017-07-02T08:53:44.256Z,14.57
2017-07-02T08:56:12.383Z,19.75
2017-07-02T08:58:40.499Z,16.58
2017-07-02T09:01:08.692Z,18.12
2017-07-02T09:03:36.789Z,20.00
2017-07-02T09:06:04.937Z,13.38
2017-07-02T09:08:33.050Z,15.65
2017-07-02T09:11:01.153Z,14.98
2017-07-02T09:13:29.297Z,17.15
2017-07-02T09:15:57.400Z,17.42
2017-07-02T09:18:25.514Z,19.12
2017-07-02T09:20:53.654Z,18.12
2017-07-02T09:23:21.780Z,16.10
2017-07-02T09:25:49.924Z,14.25
2017-07-02T09:28:18.037Z,15.10
2017-07-02T09:30:46.136Z,15.88
2017-07-02T09:33:14.269Z,16.23
2017-07-02T09:35:42.389Z,14.20
2017-07-02T09:38:10.574Z,13.90
2017-07-02T09:40:38.699Z,14.38
2017-07-02T09:43:06.815Z,15.23
2017-07-02T09:45:34.933Z,12.55
2017-07-02T09:48:03.129Z,11.10
2017-07-02T09:50:31.252Z,10.95
2017-07-02T09:52:59.354Z,15.90
2017-07-02T09:55:27.460Z,13.62
2017-07-02T09:57:55.633Z,14.15
2017-07-02T10:00:23.736Z,13.68
2017-07-02T10:02:51.899Z,13.15
2017-07-02T10:05:19.995Z,11.07
2017-07-02T10:07:48.138Z,14.38
2017-07-02T10:10:16.253Z,13.45
2017-07-02T10:12:44.349Z,14.45
2017-07-02T10:15:12.520Z,10.93
2017-07-02T10:17:40.631Z,13.62
2017-07-02T10:20:08.733Z,10.20
2017-07-02T10:22:36.984Z,10.80
2017-07-02T10:25:05.130Z,9.32
2017-07-02T10:27:33.256Z,9.40
2017-07-02T10:30:01.381Z,10.40
2017-07-02T10:32:29.490Z,11.38
2017-07-02T10:34:57.592Z,12.05
2017-07-02T10:37:25.756Z,11.63
2017-07-02T10:39:53.851Z,10.63
2017-07-02T10:42:21.952Z,9.25
2017-07-02T10:44:50.215Z,8.43
2017-07-02T10:47:18.310Z,8.77
2017-07-02T10:49:46.488Z,8.13
2017-07-02T10:52:14.596Z,10.43
2017-07-02T10:54:42.732Z,8.45
2017-07-02T10:57:10.854Z,9.77
2017-07-02T10:59:39.023Z,7.75
2017-07-02T11:02:07.141Z,9.10
2017-07-02T11:04:35.232Z,8.07
2017-07-02T11:07:03.374Z,9.75
2017-07-02T11:09:31.468Z,11.60
2017-07-02T11:11:59.599Z,8.25
2017-07-02T11:14:27.707Z,7.12
2017-07-02T11:16:55.791Z,9.65
2017-07-02T11:19:23.930Z,9.80
2017-07-02T11:21:52.029Z,9.88
2017-07-02T11:24:20.145Z,8.73
2017-07-02T11:26:48.245Z,6.22
2017-07-02T11:29:16.397Z,6.80
2017-07-02T11:31:44.489Z,7.37
2017-07-02T11:34:12.588Z,9.40
2017-07-02T11:36:40.744Z,7.55
2017-07-02T11:39:08.842Z,8.15
2017-07-02T11:41:36.967Z,9.70
2017-07-02T11:44:05.069Z,7.45
2017-07-02T11:46:33.214Z,5.55
2017-07-02T11:49:01.333Z,7.05
2017-07-02T11:51:29.581Z,5.28
2017-07-02T11:53:57.699Z,4.55
2017-07-02T11:56:25.808Z,4.82
2017-07-02T11:58:53.945Z,4.05
2017-07-02T12:01:22.059Z,4.43
2017-07-02T12:03:50.207Z,7.72
2017-07-02T12:06:18.300Z,4.07
2017-07-02T12:08:46.404Z,4.35
2017-07-02T12:11:14.642Z,5.37
2017-07-02T12:13:42.769Z,4.62
2017-07-02T12:16:10.889Z,3.77
2017-07-02T12:18:39.001Z,7.47
2017-07-02T12:21:07.138Z,6.53
2017-07-02T12:23:35.224Z,5.13
2017-07-02T12:26:03.317Z,7.40
2017-07-02T12:28:31.429Z,5.40
2017-07-02T12:30:59.539Z,6.50
2017-07-02T12:33:27.661Z,5.72
2017-07-02T12:35:55.759Z,6.67
2017-07-02T12:38:23.856Z,7.87
2017-07-02T12:40:52.096Z,6.85
2017-07-02T12:43:20.208Z,7.15
2017-07-02T12:45:48.365Z,5.20
2017-07-02T12:48:16.469Z,4.50
2017-07-02T12:50:44.602Z,8.55
2017-07-02T12:53:12.716Z,5.53
2017-07-02T12:55:40.831Z,6.53
2017-07-02T12:58:10.181Z,7.20
2017-07-02T13:00:38.283Z,6.80
2017-07-02T13:03:06.533Z,4.75
2017-07-02T13:05:34.628Z,6.65
2017-07-02T13:08:02.721Z,4.78
2017-07-02T13:10:30.853Z,4.62
2017-07-02T13:12:58.964Z,6.25
2017-07-02T13:15:27.092Z,6.05
2017-07-02T13:17:55.233Z,5.95
2017-07-02T13:20:23.321Z,4.68
2017-07-02T13:22:51.582Z,5.65
2017-07-02T13:25:19.681Z,5.65
2017-07-02T13:27:47.848Z,6.95
2017-07-02T13:30:15.943Z,7.32
2017-07-02T13:32:44.053Z,7.65
2017-07-02T13:35:12.192Z,6.55
2017-07-02T13:37:40.294Z,5.20
2017-07-02T13:40:08.410Z,5.22
2017-07-02T13:42:36.634Z,5.90
2017-07-02T13:45:04.725Z,7.68
2017-07-02T13:47:32.846Z,7.60
2017-07-02T13:50:00.945Z,5.93
2017-07-02T13:52:29.082Z,5.07
2017-07-02T13:54:57.175Z,6.65
2017-07-02T13:57:25.295Z,6.40
2017-07-02T13:59:53.450Z,7.68
2017-07-02T14:02:21.560Z,9.77
2017-07-02T14:04:49.706Z,13.05
2017-07-02T14:07:17.801Z,5.40
2017-07-02T14:09:45.937Z,4.55
2017-07-02T14:12:14.038Z,13.25
2017-07-02T14:14:42.283Z,5.60
2017-07-02T14:17:10.380Z,6.28
2017-07-02T14:19:38.490Z,5.35
2017-07-02T14:22:06.611Z,5.80
2017-07-02T14:24:34.716Z,5.03
2017-07-02T14:27:02.846Z,5.70
2017-07-02T14:29:30.945Z,6.25
2017-07-02T14:31:59.046Z,5.47
2017-07-02T14:34:27.292Z,7.40
2017-07-02T14:36:55.430Z,9.93
2017-07-02T14:39:23.521Z,6.00
2017-07-02T14:41:51.650Z,6.15
2017-07-02T14:44:19.806Z,4.85
2017-07-02T14:46:47.902Z,7.30
2017-07-02T14:49:16.045Z,8.10
2017-07-02T14:51:44.148Z,5.68
2017-07-02T14:54:12.421Z,7.03
2017-07-02T14:56:40.537Z,7.75
2017-07-02T14:59:08.626Z,4.22
2017-07-02T15:01:38.006Z,6.62
2017-07-02T15:04:06.106Z,5.57
2017-07-02T15:06:34.234Z,3.90
2017-07-02T15:09:02.372Z,4.70
2017-07-02T15:11:30.461Z,4.90
2017-07-02T15:13:58.569Z,4.40
2017-07-02T15:16:26.836Z,3.92
2017-07-02T15:18:54.960Z,8.20
2017-07-02T15:21:23.060Z,5.18
2017-07-02T15:23:51.173Z,4.97
2017-07-02T15:26:19.306Z,6.05
2017-07-02T15:28:47.410Z,4.85
2017-07-02T15:31:15.509Z,5.47
2017-07-02T15:33:43.624Z,4.30
2017-07-02T15:36:11.784Z,5.25
2017-07-02T15:38:39.887Z,5.28
2017-07-02T15:41:07.994Z,4.03
2017-07-02T15:43:36.121Z,4.70
2017-07-02T15:46:04.228Z,4.28
2017-07-02T15:48:32.361Z,4.30
2017-07-02T15:51:00.466Z,3.75
2017-07-02T15:53:28.730Z,3.55
2017-07-02T15:55:56.823Z,4.65
2017-07-02T15:58:24.935Z,5.10
2017-07-02T16:00:53.090Z,3.67
2017-07-02T16:03:21.224Z,3.30
2017-07-02T16:05:49.354Z,3.10
2017-07-02T16:08:17.445Z,3.22
2017-07-02T16:10:45.699Z,3.67
2017-07-02T16:13:13.825Z,3.15
2017-07-02T16:15:41.901Z,4.35
2017-07-02T16:18:10.044Z,4.20
2017-07-02T16:20:38.177Z,3.03
2017-07-02T16:23:06.276Z,3.47
2017-07-02T16:25:34.418Z,2.83
2017-07-02T16:28:02.541Z,3.53
2017-07-02T16:30:30.782Z,2.80
2017-07-02T16:32:58.894Z,4.68
2017-07-02T16:35:27.034Z,3.67
2017-07-02T16:37:55.138Z,5.20
2017-07-02T16:40:23.248Z,3.00
2017-07-02T16:42:51.378Z,3.20
2017-07-02T16:45:19.480Z,2.55
2017-07-02T16:47:47.595Z,3.87
2017-07-02T16:50:15.759Z,3.97
2017-07-02T16:52:43.852Z,2.60
2017-07-02T16:55:12.103Z,3.50
2017-07-02T16:57:40.228Z,3.55
2017-07-02T17:00:08.376Z,2.60
2017-07-02T17:02:36.521Z,3.12
2017-07-02T17:05:04.617Z,3.85
2017-07-02T17:07:32.734Z,3.90
2017-07-02T17:10:00.983Z,4.60
2017-07-02T17:12:29.101Z,5.10
2017-07-02T17:14:57.200Z,5.70
2017-07-02T17:17:25.346Z,4.05
2017-07-02T17:19:53.445Z,7.30
2017-07-02T17:22:21.587Z,3.17
2017-07-02T17:24:49.681Z,2.90
2017-07-02T17:27:17.790Z,2.78
2017-07-02T17:29:46.062Z,3.35
2017-07-02T17:32:14.173Z,3.60
2017-07-02T17:34:42.329Z,4.35
2017-07-02T17:37:10.469Z,3.00
2017-07-02T17:39:38.573Z,4.30
2017-07-02T17:42:06.692Z,2.70
2017-07-02T17:44:34.789Z,4.40
2017-07-02T17:47:02.896Z,3.20
2017-07-02T17:49:31.018Z,2.72
2017-07-02T17:51:59.124Z,2.90
2017-07-02T17:54:27.364Z,5.60
2017-07-02T17:56:55.488Z,4.55
2017-07-02T17:59:23.622Z,3.30
2017-07-02T18:01:51.738Z,3.35
2017-07-02T18:04:19.874Z,3.30
2017-07-02T18:06:47.994Z,6.30
2017-07-02T18:09:16.105Z,3.22
2017-07-02T18:11:44.338Z,4.62
2017-07-02T18:14:12.470Z,4.57
2017-07-02T18:16:40.568Z,3.33
2017-07-02T18:19:08.710Z,3.33
2017-07-02T18:21:36.814Z,6.05
2017-07-02T18:24:04.921Z,3.05
2017-07-02T18:26:33.070Z,3.05
2017-07-02T18:29:01.160Z,3.37
2017-07-02T18:31:29.298Z,4.65
2017-07-02T18:33:57.391Z,4.10
2017-07-02T18:36:25.518Z,3.08
2017-07-02T18:38:53.628Z,2.78
2017-07-02T18:41:21.733Z,4.72
2017-07-02T18:43:49.961Z,3.70
2017-07-02T18:46:18.047Z,3.12
2017-07-02T18:48:46.172Z,3.35
2017-07-02T18:51:14.322Z,5.45
2017-07-02T18:53:42.421Z,4.37
2017-07-02T18:56:10.528Z,4.47
2017-07-02T18:58:38.687Z,5.00
2017-07-02T19:01:06.830Z,3.05
2017-07-02T19:03:34.968Z,2.67
2017-07-02T19:06:03.070Z,2.70
2017-07-02T19:08:31.237Z,2.85
2017-07-02T19:10:59.339Z,3.92
2017-07-02T19:13:27.445Z,3.33
2017-07-02T19:15:55.577Z,3.53
2017-07-02T19:18:23.677Z,4.40
2017-07-02T19:20:51.772Z,3.05
2017-07-02T19:23:19.950Z,3.97
2017-07-02T19:25:48.072Z,3.10
2017-07-02T19:28:16.205Z,4.55
2017-07-02T19:30:44.337Z,3.45
2017-07-02T19:33:12.449Z,5.68
2017-07-02T19:35:40.580Z,3.40
2017-07-02T19:38:08.713Z,4.45
2017-07-02T19:40:36.811Z,4.72
2017-07-02T19:43:04.921Z,4.07
2017-07-02T19:45:33.166Z,3.37
2017-07-02T19:48:01.309Z,3.65
2017-07-02T19:50:29.420Z,3.95
2017-07-02T19:52:57.549Z,2.92
2017-07-02T19:55:25.790Z,3.30
2017-07-02T19:57:53.893Z,2.92
2017-07-02T20:00:21.985Z,2.70
2017-07-02T20:02:50.185Z,3.35
2017-07-02T20:05:18.277Z,3.50
2017-07-02T20:07:46.444Z,5.70
2017-07-02T20:10:14.577Z,2.67
2017-07-02T20:12:42.675Z,2.85
2017-07-02T20:15:10.801Z,2.40
2017-07-02T20:17:38.928Z,2.65
2017-07-02T20:20:07.038Z,2.30
2017-07-02T20:22:35.285Z,2.90
2017-07-02T20:25:03.384Z,2.53
2017-07-02T20:27:31.630Z,2.30
2017-07-02T20:29:59.736Z,2.75
2017-07-02T20:32:29.061Z,2.50
2017-07-02T20:34:57.148Z,2.75
2017-07-02T20:37:25.248Z,2.70
2017-07-02T20:39:53.394Z,2.67
2017-07-02T20:42:21.497Z,3.75
2017-07-02T20:44:49.734Z,2.67
2017-07-02T20:47:17.825Z,2.65
2017-07-02T20:49:45.966Z,2.78
2017-07-02T20:52:14.064Z,2.80
2017-07-02T20:54:42.192Z,2.53
2017-07-02T20:57:10.301Z,3.10
2017-07-02T20:59:38.593Z,2.60
2017-07-02T21:02:06.717Z,3.10
2017-07-02T21:04:34.828Z,2.90
2017-07-02T21:07:02.989Z,3.83
2017-07-02T21:09:31.079Z,3.47
2017-07-02T21:11:59.202Z,4.15
2017-07-02T21:14:27.320Z,3.33
2017-07-02T21:16:55.553Z,5.97
2017-07-02T21:19:23.653Z,4.95
2017-07-02T21:21:51.783Z,3.20
2017-07-02T21:24:19.908Z,4.68
2017-07-02T21:26:48.025Z,4.25
2017-07-02T21:29:16.121Z,6.40
2017-07-02T21:31:44.382Z,3.47
2017-07-02T21:34:12.472Z,3.28
2017-07-02T21:36:40.584Z,4.00
2017-07-02T21:39:08.720Z,4.20
2017-07-02T21:41:36.864Z,5.45
2017-07-02T21:44:04.980Z,5.22
2017-07-02T21:46:33.074Z,3.90
2017-07-02T21:49:01.313Z,3.90
2017-07-02T21:51:29.439Z,5.53
2017-07-02T21:53:57.535Z,4.37
2017-07-02T21:56:25.639Z,3.90
2017-07-02T21:58:54.981Z,4.15
2017-07-02T22:01:23.104Z,6.47
2017-07-02T22:03:51.221Z,5.85
2017-07-02T22:06:19.449Z,3.62
2017-07-02T22:08:47.552Z,4.37
2017-07-02T22:11:15.688Z,5.37
2017-07-02T22:13:43.780Z,5.15
2017-07-02T22:16:11.877Z,7.87
2017-07-02T22:18:40.108Z,3.42
2017-07-02T22:21:08.237Z,5.10
2017-07-02T22:23:36.337Z,3.40
2017-07-02T22:26:04.424Z,5.55
2017-07-02T22:28:32.557Z,3.67
2017-07-02T22:31:00.653Z,5.03
2017-07-02T22:33:28.882Z,5.68
2017-07-02T22:35:56.973Z,3.50
2017-07-02T22:38:25.092Z,4.87
2017-07-02T22:40:53.193Z,3.47
2017-07-02T22:43:21.317Z,3.90
2017-07-02T22:45:49.405Z,3.67
2017-07-02T22:48:17.501Z,7.97
2017-07-02T22:50:45.747Z,4.87
2017-07-02T22:53:13.843Z,7.87
2017-07-02T22:55:41.949Z,4.97
2017-07-02T22:58:10.084Z,3.62
2017-07-02T23:00:38.326Z,3.90
2017-07-02T23:03:06.425Z,5.60
2017-07-02T23:05:34.513Z,5.50
2017-07-02T23:08:02.753Z,4.87
2017-07-02T23:10:30.856Z,6.22
2017-07-02T23:12:58.985Z,4.40
2017-07-02T23:15:27.081Z,9.30
2017-07-02T23:17:55.313Z,4.85
2017-07-02T23:20:23.411Z,4.57
2017-07-02T23:22:51.644Z,4.50
2017-07-02T23:25:19.736Z,6.78
2017-07-02T23:27:47.837Z,4.65
2017-07-02T23:30:15.980Z,6.65
2017-07-02T23:32:44.052Z,5.37
2017-07-02T23:35:12.176Z,4.97
2017-07-02T23:37:40.276Z,4.93
2017-07-02T23:40:08.510Z,4.30
2017-07-02T23:42:36.608Z,4.62
2017-07-02T23:45:04.708Z,10.05
2017-07-02T23:47:32.829Z,5.43
2017-07-02T23:50:00.929Z,4.95
2017-07-02T23:52:29.049Z,5.53
2017-07-02T23:54:57.143Z,5.10
2017-07-02T23:57:25.390Z,5.85
2017-07-02T23:59:53.524Z,5.00
